Airfield :
LOGIN :

Register | Disclaimer

   EN    FR    IT 

 










Legend :    VFR   Marginal VFR   IFR   Intensive IFR   Very Intensive IFR
Visi :
Ceiling :
>= 8 km
>= 3000ft
5 to 8 km
1000 to 3000 ft
1500m to 5 km
500 to 1000 ft
800 to 1500m
200 to 500 ft
< 800m
< 200 ft
Symbols :   Thunderstorms  Fog  Heavy snow  Heavy precipitations  Wind > 20 kt
SIGMETs :     Misc.  Thunderstorms  Icing  Turbulence  Mountain Waves  Volcanic Ashes






- Airport Elevation : 158 ft
- IATA code : QAR


EHDL - Deelen Airbase

CURRENT METAR :
  • 161055Z AUTO 19009KT 120V240 9999 -DZ FEW015CB BKN055 OVC062 08/06 Q1005 BLU

EXPIRED METARs :
  • 161025Z AUTO 19010KT 140V240 9999 FEW045 BKN053 BKN065 08/06 Q1005 BLU
  • 160955Z AUTO 19010KT 140V230 9999 SCT050 SCT057 BKN080 08/06 Q1005 BLU
  • 160925Z AUTO 19011KT 140V250 9999 FEW068 BKN079 OVC086 08/06 Q1005 BLU
  • 160855Z AUTO 19011KT 140V260 9999 FEW066 OVC071 08/06 Q1005 BLU
  • 160825Z AUTO 19010KT 140V240 9999 FEW061 SCT069 OVC076 07/06 Q1005 BLU

Expired Forecast.



MET'MAP, your aeronautical weather chart ! - Copyright ORBIFLY December 2007 - Disclaimer

ORBIFLY MET'MAP TEAM :

Programming & Development : Alexandra Zaïnal
Concept & original design : Baudouin d'Aumeries
Assistance for programming : Marc-Olivier Méhu
Technical & hardware support : Manuel Goepfert

Contact : metmap@orbifly.com




SOURCES & CREDITS :

   NOAA